Hovedside
METAR-TAF:

METAR-TAF

Lufthavner :

Enontekiö lufthavn

Enontekis, Finland

breddegrad: 68-21-52N, lengdegrad: 023-25-39E, høyde over havet: 308 m

Gjeldene værobservasjon

Denne rapporten ble laget for 43 minutter siden, klokken 16:50 UTC
Vind 8 kt fra Vest-nordvest
Temperatur 15°C
Luftfuktighet 55%
Trykk 1011 hPa
Sikt 10 km eller mer
ingen skyer under 1500 m og ingen bygeskyer

METAR: EFET 241650Z AUTO 29008KT CAVOK 15/06 Q1011

Tid: 20:33 (17:33 UTC)


TAF: fraværende

Værobservasjoner og værvarsel for over 4000 flyplasser (METAR- og TAF-rapporter).

Tilgjengelige stasjoner er representert av de røde og gule prikkene på kartet.

Hold musepekeren over prikken for å se navnet på stasjonen.

Klikk så for å se værobservasjoner og -varsler.

For å forandre kartet kan du klikke på den grønne knappen med svart kryss for å zoome inn, på den grønne knappen med strek for å zoome ut, eller på de grønne pilene for å se tilstøtende kart.


METAR-TAF: